sensor_id;sensor_type;location;lat;lon;timestamp;temperature;humidity
23520;DHT22;11936;50.820;4.336;2023-02-28T00:01:30;5.10;97.60
23520;DHT22;11936;50.820;4.336;2023-02-28T00:03:56;5.10;97.70
23520;DHT22;11936;50.820;4.336;2023-02-28T00:06:22;4.90;97.90
23520;DHT22;11936;50.820;4.336;2023-02-28T00:08:52;5.00;98.00
23520;DHT22;11936;50.820;4.336;2023-02-28T00:11:17;4.90;98.00
23520;DHT22;11936;50.820;4.336;2023-02-28T00:13:45;4.90;98.10
23520;DHT22;11936;50.820;4.336;2023-02-28T00:16:20;4.80;98.30
23520;DHT22;11936;50.820;4.336;2023-02-28T00:18:46;5.00;98.20
23520;DHT22;11936;50.820;4.336;2023-02-28T00:21:16;5.10;98.00
23520;DHT22;11936;50.820;4.336;2023-02-28T00:23:42;5.10;98.00
23520;DHT22;11936;50.820;4.336;2023-02-28T00:26:08;5.00;98.10
23520;DHT22;11936;50.820;4.336;2023-02-28T00:28:34;5.10;98.10
23520;DHT22;11936;50.820;4.336;2023-02-28T00:31:00;5.00;98.20
23520;DHT22;11936;50.820;4.336;2023-02-28T00:33:26;4.90;98.10
23520;DHT22;11936;50.820;4.336;2023-02-28T00:35:52;5.00;98.30
23520;DHT22;11936;50.820;4.336;2023-02-28T00:38:25;4.90;98.40
23520;DHT22;11936;50.820;4.336;2023-02-28T00:40:51;4.90;98.30
23520;DHT22;11936;50.820;4.336;2023-02-28T00:43:17;4.80;98.50
23520;DHT22;11936;50.820;4.336;2023-02-28T00:45:43;4.80;98.50
23520;DHT22;11936;50.820;4.336;2023-02-28T00:48:09;4.80;98.60
23520;DHT22;11936;50.820;4.336;2023-02-28T00:50:34;4.70;98.60
23520;DHT22;11936;50.820;4.336;2023-02-28T00:53:00;4.70;98.70
23520;DHT22;11936;50.820;4.336;2023-02-28T00:55:25;4.80;98.70
23520;DHT22;11936;50.820;4.336;2023-02-28T00:57:51;4.80;98.70
23520;DHT22;11936;50.820;4.336;2023-02-28T01:00:17;4.70;98.60
23520;DHT22;11936;50.820;4.336;2023-02-28T01:02:42;4.70;98.90
23520;DHT22;11936;50.820;4.336;2023-02-28T01:05:08;4.70;98.90
23520;DHT22;11936;50.820;4.336;2023-02-28T01:07:34;4.60;99.10
23520;DHT22;11936;50.820;4.336;2023-02-28T01:09:59;4.70;99.00
23520;DHT22;11936;50.820;4.336;2023-02-28T01:12:25;4.70;99.00
23520;DHT22;11936;50.820;4.336;2023-02-28T01:14:50;4.60;98.90
23520;DHT22;11936;50.820;4.336;2023-02-28T01:17:16;4.60;99.10
23520;DHT22;11936;50.820;4.336;2023-02-28T01:19:42;4.70;99.00
23520;DHT22;11936;50.820;4.336;2023-02-28T01:22:08;4.80;99.00
23520;DHT22;11936;50.820;4.336;2023-02-28T01:24:33;4.70;99.10
23520;DHT22;11936;50.820;4.336;2023-02-28T01:26:59;4.70;99.20
23520;DHT22;11936;50.820;4.336;2023-02-28T01:29:24;4.60;99.30
23520;DHT22;11936;50.820;4.336;2023-02-28T01:31:50;4.60;99.40
23520;DHT22;11936;50.820;4.336;2023-02-28T01:34:16;4.60;99.60
23520;DHT22;11936;50.820;4.336;2023-02-28T01:36:41;4.60;99.50
23520;DHT22;11936;50.820;4.336;2023-02-28T01:39:07;4.60;99.40
23520;DHT22;11936;50.820;4.336;2023-02-28T01:41:34;4.60;99.40
23520;DHT22;11936;50.820;4.336;2023-02-28T01:44:04;4.70;99.40
23520;DHT22;11936;50.820;4.336;2023-02-28T01:46:34;4.60;99.50
23520;DHT22;11936;50.820;4.336;2023-02-28T01:49:11;4.50;99.60
23520;DHT22;11936;50.820;4.336;2023-02-28T01:51:44;4.50;99.60
23520;DHT22;11936;50.820;4.336;2023-02-28T01:54:14;4.60;99.50
23520;DHT22;11936;50.820;4.336;2023-02-28T01:56:47;4.50;99.60
23520;DHT22;11936;50.820;4.336;2023-02-28T01:59:22;4.50;99.80
23520;DHT22;11936;50.820;4.336;2023-02-28T02:01:49;4.50;99.60
23520;DHT22;11936;50.820;4.336;2023-02-28T02:04:14;4.40;99.70
23520;DHT22;11936;50.820;4.336;2023-02-28T02:06:44;4.40;99.70
23520;DHT22;11936;50.820;4.336;2023-02-28T02:09:11;4.60;99.60
23520;DHT22;11936;50.820;4.336;2023-02-28T02:11:39;4.60;99.40
23520;DHT22;11936;50.820;4.336;2023-02-28T02:17:10;4.60;99.50
23520;DHT22;11936;50.820;4.336;2023-02-28T02:22:59;4.50;99.70
23520;DHT22;11936;50.820;4.336;2023-02-28T02:36:40;4.50;99.60
23520;DHT22;11936;50.820;4.336;2023-02-28T02:39:19;4.30;99.80
23520;DHT22;11936;50.820;4.336;2023-02-28T02:41:52;4.30;99.90
23520;DHT22;11936;50.820;4.336;2023-02-28T02:44:40;4.30;99.90
23520;DHT22;11936;50.820;4.336;2023-02-28T02:47:13;4.30;99.90
23520;DHT22;11936;50.820;4.336;2023-02-28T02:49:43;4.20;99.90
23520;DHT22;11936;50.820;4.336;2023-02-28T02:52:15;4.30;99.90
23520;DHT22;11936;50.820;4.336;2023-02-28T02:54:45;4.30;99.90
23520;DHT22;11936;50.820;4.336;2023-02-28T02:57:17;4.40;99.90
23520;DHT22;11936;50.820;4.336;2023-02-28T02:59:47;4.40;99.90
23520;DHT22;11936;50.820;4.336;2023-02-28T03:02:15;4.30;99.90
23520;DHT22;11936;50.820;4.336;2023-02-28T03:04:45;4.20;99.90
23520;DHT22;11936;50.820;4.336;2023-02-28T03:07:11;4.30;99.90
23520;DHT22;11936;50.820;4.336;2023-02-28T03:09:37;4.30;99.90
23520;DHT22;11936;50.820;4.336;2023-02-28T03:12:03;4.30;99.90
23520;DHT22;11936;50.820;4.336;2023-02-28T03:25:18;4.20;99.90
23520;DHT22;11936;50.820;4.336;2023-02-28T03:35:52;4.10;99.90
23520;DHT22;11936;50.820;4.336;2023-02-28T03:41:00;4.10;99.90
23520;DHT22;11936;50.820;4.336;2023-02-28T03:43:31;4.10;99.90
23520;DHT22;11936;50.820;4.336;2023-02-28T03:45:59;4.20;99.90
23520;DHT22;11936;50.820;4.336;2023-02-28T03:48:38;4.10;99.90
23520;DHT22;11936;50.820;4.336;2023-02-28T03:51:08;4.10;99.90
23520;DHT22;11936;50.820;4.336;2023-02-28T03:53:37;4.10;99.90
23520;DHT22;11936;50.820;4.336;2023-02-28T03:56:14;4.10;99.90
23520;DHT22;11936;50.820;4.336;2023-02-28T03:59:05;4.10;99.90
23520;DHT22;11936;50.820;4.336;2023-02-28T04:01:40;4.10;99.90
23520;DHT22;11936;50.820;4.336;2023-02-28T04:04:08;4.20;99.90
23520;DHT22;11936;50.820;4.336;2023-02-28T04:06:35;4.20;99.90
23520;DHT22;11936;50.820;4.336;2023-02-28T04:09:02;4.10;99.90
23520;DHT22;11936;50.820;4.336;2023-02-28T04:11:39;4.20;99.90
23520;DHT22;11936;50.820;4.336;2023-02-28T04:14:06;4.30;99.90
23520;DHT22;11936;50.820;4.336;2023-02-28T04:16:34;4.20;99.90
23520;DHT22;11936;50.820;4.336;2023-02-28T04:19:01;4.10;99.90
23520;DHT22;11936;50.820;4.336;2023-02-28T04:21:31;4.10;99.90
23520;DHT22;11936;50.820;4.336;2023-02-28T04:23:57;4.10;99.90
23520;DHT22;11936;50.820;4.336;2023-02-28T04:26:32;4.10;99.90
23520;DHT22;11936;50.820;4.336;2023-02-28T04:28:59;4.10;99.90
23520;DHT22;11936;50.820;4.336;2023-02-28T04:31:24;4.10;99.90
23520;DHT22;11936;50.820;4.336;2023-02-28T04:33:50;4.10;99.90
23520;DHT22;11936;50.820;4.336;2023-02-28T04:36:16;4.00;99.90
23520;DHT22;11936;50.820;4.336;2023-02-28T04:38:45;4.10;99.90
23520;DHT22;11936;50.820;4.336;2023-02-28T04:41:12;4.00;99.90
23520;DHT22;11936;50.820;4.336;2023-02-28T04:43:38;3.90;99.90
23520;DHT22;11936;50.820;4.336;2023-02-28T04:46:05;3.90;99.90
23520;DHT22;11936;50.820;4.336;2023-02-28T04:48:34;3.80;99.90
23520;DHT22;11936;50.820;4.336;2023-02-28T04:51:05;3.90;99.90
23520;DHT22;11936;50.820;4.336;2023-02-28T04:53:31;3.90;99.90
23520;DHT22;11936;50.820;4.336;2023-02-28T04:55:57;3.90;99.90
23520;DHT22;11936;50.820;4.336;2023-02-28T04:58:23;3.90;99.90
23520;DHT22;11936;50.820;4.336;2023-02-28T05:00:50;3.80;99.90
23520;DHT22;11936;50.820;4.336;2023-02-28T05:03:15;3.90;99.90
23520;DHT22;11936;50.820;4.336;2023-02-28T05:05:41;3.90;99.90
23520;DHT22;11936;50.820;4.336;2023-02-28T05:08:06;3.90;99.90
23520;DHT22;11936;50.820;4.336;2023-02-28T05:10:33;3.90;99.90
23520;DHT22;11936;50.820;4.336;2023-02-28T05:12:59;4.00;99.90
23520;DHT22;11936;50.820;4.336;2023-02-28T05:15:24;4.00;99.90
23520;DHT22;11936;50.820;4.336;2023-02-28T05:17:50;4.10;99.90
23520;DHT22;11936;50.820;4.336;2023-02-28T05:20:16;4.10;99.90
23520;DHT22;11936;50.820;4.336;2023-02-28T05:22:43;4.20;99.90
23520;DHT22;11936;50.820;4.336;2023-02-28T05:25:19;4.20;99.90
23520;DHT22;11936;50.820;4.336;2023-02-28T05:27:45;4.10;99.90
23520;DHT22;11936;50.820;4.336;2023-02-28T05:30:11;4.10;99.90
23520;DHT22;11936;50.820;4.336;2023-02-28T05:32:41;4.20;99.90
23520;DHT22;11936;50.820;4.336;2023-02-28T05:35:11;4.10;99.90
23520;DHT22;11936;50.820;4.336;2023-02-28T05:37:37;4.10;99.90
23520;DHT22;11936;50.820;4.336;2023-02-28T05:40:04;4.00;99.90
23520;DHT22;11936;50.820;4.336;2023-02-28T05:42:31;4.10;99.90
23520;DHT22;11936;50.820;4.336;2023-02-28T05:44:57;4.20;99.90
23520;DHT22;11936;50.820;4.336;2023-02-28T05:47:24;4.40;99.90
23520;DHT22;11936;50.820;4.336;2023-02-28T05:49:49;4.40;99.90
23520;DHT22;11936;50.820;4.336;2023-02-28T05:52:15;4.50;99.90
23520;DHT22;11936;50.820;4.336;2023-02-28T05:54:41;4.50;99.90
23520;DHT22;11936;50.820;4.336;2023-02-28T05:57:06;4.50;99.90
23520;DHT22;11936;50.820;4.336;2023-02-28T05:59:32;4.60;99.90
23520;DHT22;11936;50.820;4.336;2023-02-28T06:01:58;4.50;99.90
23520;DHT22;11936;50.820;4.336;2023-02-28T06:04:24;4.40;99.90
23520;DHT22;11936;50.820;4.336;2023-02-28T06:06:50;4.50;99.90
23520;DHT22;11936;50.820;4.336;2023-02-28T06:09:17;4.60;99.90
23520;DHT22;11936;50.820;4.336;2023-02-28T06:11:43;4.50;99.90
23520;DHT22;11936;50.820;4.336;2023-02-28T06:14:15;4.50;99.90
23520;DHT22;11936;50.820;4.336;2023-02-28T06:16:41;4.60;99.90
23520;DHT22;11936;50.820;4.336;2023-02-28T06:19:08;4.50;99.90
23520;DHT22;11936;50.820;4.336;2023-02-28T06:21:34;4.50;99.90
23520;DHT22;11936;50.820;4.336;2023-02-28T06:23:59;4.60;99.90
23520;DHT22;11936;50.820;4.336;2023-02-28T06:26:25;4.60;99.90
23520;DHT22;11936;50.820;4.336;2023-02-28T06:28:51;4.50;99.90
23520;DHT22;11936;50.820;4.336;2023-02-28T06:31:17;4.60;99.90
23520;DHT22;11936;50.820;4.336;2023-02-28T06:33:44;4.50;99.90
23520;DHT22;11936;50.820;4.336;2023-02-28T06:36:11;4.50;99.90
23520;DHT22;11936;50.820;4.336;2023-02-28T06:38:38;4.40;99.90
23520;DHT22;11936;50.820;4.336;2023-02-28T06:41:07;4.40;99.90
23520;DHT22;11936;50.820;4.336;2023-02-28T06:43:36;4.40;99.90
23520;DHT22;11936;50.820;4.336;2023-02-28T06:46:05;4.30;99.90
23520;DHT22;11936;50.820;4.336;2023-02-28T06:48:30;4.40;99.90
23520;DHT22;11936;50.820;4.336;2023-02-28T06:51:10;4.40;99.90
23520;DHT22;11936;50.820;4.336;2023-02-28T06:53:36;4.40;99.90
23520;DHT22;11936;50.820;4.336;2023-02-28T06:56:11;4.40;99.90
23520;DHT22;11936;50.820;4.336;2023-02-28T06:58:37;4.40;99.90
23520;DHT22;11936;50.820;4.336;2023-02-28T07:01:04;4.40;99.90
23520;DHT22;11936;50.820;4.336;2023-02-28T07:03:30;4.40;99.90
23520;DHT22;11936;50.820;4.336;2023-02-28T07:05:56;4.40;99.90
23520;DHT22;11936;50.820;4.336;2023-02-28T07:08:23;4.60;99.90
23520;DHT22;11936;50.820;4.336;2023-02-28T07:10:52;4.70;99.90
23520;DHT22;11936;50.820;4.336;2023-02-28T07:13:17;4.80;99.90
23520;DHT22;11936;50.820;4.336;2023-02-28T07:15:43;4.70;99.90
23520;DHT22;11936;50.820;4.336;2023-02-28T07:18:08;4.70;99.90
23520;DHT22;11936;50.820;4.336;2023-02-28T07:20:34;4.70;99.90
23520;DHT22;11936;50.820;4.336;2023-02-28T07:23:00;4.80;99.90
23520;DHT22;11936;50.820;4.336;2023-02-28T07:25:27;4.80;99.90
23520;DHT22;11936;50.820;4.336;2023-02-28T07:27:54;4.80;99.90
23520;DHT22;11936;50.820;4.336;2023-02-28T07:30:20;4.70;99.90
23520;DHT22;11936;50.820;4.336;2023-02-28T07:32:46;4.70;99.90
23520;DHT22;11936;50.820;4.336;2023-02-28T07:35:12;4.70;99.90
23520;DHT22;11936;50.820;4.336;2023-02-28T07:37:37;4.90;99.90
23520;DHT22;11936;50.820;4.336;2023-02-28T07:40:04;5.00;99.90
23520;DHT22;11936;50.820;4.336;2023-02-28T07:42:32;5.00;99.90
23520;DHT22;11936;50.820;4.336;2023-02-28T07:44:57;5.00;99.90
23520;DHT22;11936;50.820;4.336;2023-02-28T07:47:24;5.10;99.90
23520;DHT22;11936;50.820;4.336;2023-02-28T07:49:50;5.00;99.80
23520;DHT22;11936;50.820;4.336;2023-02-28T07:52:15;4.90;98.90
23520;DHT22;11936;50.820;4.336;2023-02-28T07:54:41;4.80;99.10
23520;DHT22;11936;50.820;4.336;2023-02-28T07:57:06;4.70;99.00
23520;DHT22;11936;50.820;4.336;2023-02-28T07:59:32;4.70;99.30
23520;DHT22;11936;50.820;4.336;2023-02-28T08:01:58;4.80;98.90
23520;DHT22;11936;50.820;4.336;2023-02-28T08:04:24;4.90;98.80
23520;DHT22;11936;50.820;4.336;2023-02-28T08:06:50;4.80;98.40
23520;DHT22;11936;50.820;4.336;2023-02-28T08:09:17;4.70;98.50
23520;DHT22;11936;50.820;4.336;2023-02-28T08:11:42;4.80;98.70
23520;DHT22;11936;50.820;4.336;2023-02-28T08:14:08;4.90;98.30
23520;DHT22;11936;50.820;4.336;2023-02-28T08:16:34;4.90;97.50
23520;DHT22;11936;50.820;4.336;2023-02-28T08:18:59;5.00;97.20
23520;DHT22;11936;50.820;4.336;2023-02-28T08:21:25;5.00;97.00
23520;DHT22;11936;50.820;4.336;2023-02-28T08:23:51;5.10;96.90
23520;DHT22;11936;50.820;4.336;2023-02-28T08:26:17;5.00;97.00
23520;DHT22;11936;50.820;4.336;2023-02-28T08:28:43;5.20;97.00
23520;DHT22;11936;50.820;4.336;2023-02-28T08:31:14;5.10;95.80
23520;DHT22;11936;50.820;4.336;2023-02-28T08:33:40;5.10;95.40
23520;DHT22;11936;50.820;4.336;2023-02-28T08:36:07;5.10;95.30
23520;DHT22;11936;50.820;4.336;2023-02-28T08:38:34;5.20;95.80
23520;DHT22;11936;50.820;4.336;2023-02-28T08:41:03;5.20;95.40
23520;DHT22;11936;50.820;4.336;2023-02-28T08:43:31;5.20;95.00
23520;DHT22;11936;50.820;4.336;2023-02-28T08:45:57;5.20;95.00
23520;DHT22;11936;50.820;4.336;2023-02-28T08:48:24;5.10;94.80
23520;DHT22;11936;50.820;4.336;2023-02-28T08:51:09;5.10;94.90
23520;DHT22;11936;50.820;4.336;2023-02-28T08:53:39;5.10;94.90
23520;DHT22;11936;50.820;4.336;2023-02-28T08:56:13;5.00;95.20
23520;DHT22;11936;50.820;4.336;2023-02-28T08:58:39;4.90;95.00
23520;DHT22;11936;50.820;4.336;2023-02-28T09:01:26;4.90;94.90
23520;DHT22;11936;50.820;4.336;2023-02-28T09:03:52;4.90;95.20
23520;DHT22;11936;50.820;4.336;2023-02-28T09:06:20;5.00;94.90
23520;DHT22;11936;50.820;4.336;2023-02-28T09:08:46;5.00;94.90
23520;DHT22;11936;50.820;4.336;2023-02-28T09:11:12;5.10;94.70
23520;DHT22;11936;50.820;4.336;2023-02-28T09:13:38;5.20;94.70
23520;DHT22;11936;50.820;4.336;2023-02-28T09:16:06;5.10;94.50
23520;DHT22;11936;50.820;4.336;2023-02-28T09:18:33;5.00;94.70
23520;DHT22;11936;50.820;4.336;2023-02-28T09:21:05;5.00;94.60
23520;DHT22;11936;50.820;4.336;2023-02-28T09:23:31;5.00;94.30
23520;DHT22;11936;50.820;4.336;2023-02-28T09:25:57;5.00;93.10
23520;DHT22;11936;50.820;4.336;2023-02-28T09:28:23;5.00;93.10
23520;DHT22;11936;50.820;4.336;2023-02-28T09:30:51;5.00;93.10
23520;DHT22;11936;50.820;4.336;2023-02-28T09:33:18;4.90;93.20
23520;DHT22;11936;50.820;4.336;2023-02-28T09:35:51;5.00;93.60
23520;DHT22;11936;50.820;4.336;2023-02-28T09:38:22;5.00;93.10
23520;DHT22;11936;50.820;4.336;2023-02-28T09:40:57;5.00;92.80
23520;DHT22;11936;50.820;4.336;2023-02-28T09:43:47;5.10;91.70
23520;DHT22;11936;50.820;4.336;2023-02-28T09:46:34;5.10;91.70
23520;DHT22;11936;50.820;4.336;2023-02-28T09:49:05;5.10;91.90
23520;DHT22;11936;50.820;4.336;2023-02-28T09:54:18;5.30;92.10
23520;DHT22;11936;50.820;4.336;2023-02-28T09:56:49;5.50;91.70
23520;DHT22;11936;50.820;4.336;2023-02-28T10:05:30;5.40;91.00
23520;DHT22;11936;50.820;4.336;2023-02-28T10:10:48;5.30;91.00
23520;DHT22;11936;50.820;4.336;2023-02-28T10:13:32;5.40;90.80
23520;DHT22;11936;50.820;4.336;2023-02-28T10:16:06;5.40;90.50
23520;DHT22;11936;50.820;4.336;2023-02-28T10:24:44;5.20;90.00
23520;DHT22;11936;50.820;4.336;2023-02-28T10:27:16;5.30;89.30
23520;DHT22;11936;50.820;4.336;2023-02-28T10:29:51;5.30;90.00
23520;DHT22;11936;50.820;4.336;2023-02-28T10:32:19;5.40;89.40
23520;DHT22;11936;50.820;4.336;2023-02-28T10:34:59;5.40;88.40
23520;DHT22;11936;50.820;4.336;2023-02-28T10:37:26;5.60;87.60
23520;DHT22;11936;50.820;4.336;2023-02-28T10:39:53;5.50;86.10
23520;DHT22;11936;50.820;4.336;2023-02-28T10:42:27;5.50;87.70
23520;DHT22;11936;50.820;4.336;2023-02-28T10:45:13;5.50;88.00
23520;DHT22;11936;50.820;4.336;2023-02-28T11:01:18;5.70;82.80
23520;DHT22;11936;50.820;4.336;2023-02-28T11:03:43;5.60;83.50
23520;DHT22;11936;50.820;4.336;2023-02-28T11:06:16;5.70;83.30
23520;DHT22;11936;50.820;4.336;2023-02-28T11:08:53;5.80;83.50
23520;DHT22;11936;50.820;4.336;2023-02-28T11:11:20;5.80;83.20
23520;DHT22;11936;50.820;4.336;2023-02-28T11:13:50;5.90;83.00
23520;DHT22;11936;50.820;4.336;2023-02-28T11:16:16;6.00;82.60
23520;DHT22;11936;50.820;4.336;2023-02-28T11:18:55;6.20;82.30
23520;DHT22;11936;50.820;4.336;2023-02-28T11:21:27;6.10;81.50
23520;DHT22;11936;50.820;4.336;2023-02-28T11:24:18;6.10;82.80
23520;DHT22;11936;50.820;4.336;2023-02-28T11:26:47;6.00;82.70
23520;DHT22;11936;50.820;4.336;2023-02-28T11:29:27;6.00;82.40
23520;DHT22;11936;50.820;4.336;2023-02-28T11:34:35;5.90;82.30
23520;DHT22;11936;50.820;4.336;2023-02-28T11:37:09;5.90;81.00
23520;DHT22;11936;50.820;4.336;2023-02-28T11:39:38;5.90;82.10
23520;DHT22;11936;50.820;4.336;2023-02-28T11:45:07;6.00;81.90
23520;DHT22;11936;50.820;4.336;2023-02-28T11:50:27;6.10;80.50
23520;DHT22;11936;50.820;4.336;2023-02-28T11:53:59;6.20;81.00
23520;DHT22;11936;50.820;4.336;2023-02-28T11:59:14;6.20;80.90
23520;DHT22;11936;50.820;4.336;2023-02-28T12:07:31;6.30;81.30
23520;DHT22;11936;50.820;4.336;2023-02-28T12:10:01;6.30;80.90
23520;DHT22;11936;50.820;4.336;2023-02-28T12:20:59;6.00;81.00
23520;DHT22;11936;50.820;4.336;2023-02-28T12:29:08;6.30;81.20
23520;DHT22;11936;50.820;4.336;2023-02-28T12:31:38;6.40;79.80
23520;DHT22;11936;50.820;4.336;2023-02-28T12:34:22;6.40;78.50
23520;DHT22;11936;50.820;4.336;2023-02-28T12:36:52;6.40;78.40
23520;DHT22;11936;50.820;4.336;2023-02-28T12:39:25;6.40;77.60
23520;DHT22;11936;50.820;4.336;2023-02-28T12:41:56;6.40;77.80
23520;DHT22;11936;50.820;4.336;2023-02-28T12:47:00;6.70;77.70
23520;DHT22;11936;50.820;4.336;2023-02-28T12:49:34;6.70;76.90
23520;DHT22;11936;50.820;4.336;2023-02-28T12:52:03;6.60;77.30
23520;DHT22;11936;50.820;4.336;2023-02-28T12:54:40;6.70;76.90
23520;DHT22;11936;50.820;4.336;2023-02-28T12:57:12;6.40;77.40
23520;DHT22;11936;50.820;4.336;2023-02-28T12:59:41;6.50;78.00
23520;DHT22;11936;50.820;4.336;2023-02-28T13:09:56;6.70;76.30
23520;DHT22;11936;50.820;4.336;2023-02-28T13:12:23;6.70;76.60
23520;DHT22;11936;50.820;4.336;2023-02-28T13:14:50;6.70;76.20
23520;DHT22;11936;50.820;4.336;2023-02-28T13:17:21;6.80;76.40
23520;DHT22;11936;50.820;4.336;2023-02-28T13:24:55;6.90;75.30
23520;DHT22;11936;50.820;4.336;2023-02-28T13:27:22;6.80;74.40
23520;DHT22;11936;50.820;4.336;2023-02-28T13:29:49;6.60;75.10
23520;DHT22;11936;50.820;4.336;2023-02-28T13:47:41;6.90;74.60
23520;DHT22;11936;50.820;4.336;2023-02-28T13:53:03;7.00;73.60
23520;DHT22;11936;50.820;4.336;2023-02-28T13:55:46;7.00;73.30
23520;DHT22;11936;50.820;4.336;2023-02-28T14:06:39;7.00;74.00
23520;DHT22;11936;50.820;4.336;2023-02-28T14:09:23;7.00;72.60
23520;DHT22;11936;50.820;4.336;2023-02-28T14:11:49;6.90;73.70
23520;DHT22;11936;50.820;4.336;2023-02-28T14:17:05;6.90;73.50
23520;DHT22;11936;50.820;4.336;2023-02-28T14:19:34;7.00;73.50
23520;DHT22;11936;50.820;4.336;2023-02-28T14:25:11;6.90;73.20
23520;DHT22;11936;50.820;4.336;2023-02-28T14:27:49;6.80;73.40
23520;DHT22;11936;50.820;4.336;2023-02-28T14:30:29;6.80;73.60
23520;DHT22;11936;50.820;4.336;2023-02-28T14:33:22;6.80;74.40
23520;DHT22;11936;50.820;4.336;2023-02-28T14:38:33;7.00;73.30
23520;DHT22;11936;50.820;4.336;2023-02-28T14:41:04;7.00;72.80
23520;DHT22;11936;50.820;4.336;2023-02-28T14:43:31;7.00;73.40
23520;DHT22;11936;50.820;4.336;2023-02-28T14:46:00;7.20;73.30
23520;DHT22;11936;50.820;4.336;2023-02-28T14:48:27;7.20;72.60
23520;DHT22;11936;50.820;4.336;2023-02-28T14:50:58;7.30;73.90
23520;DHT22;11936;50.820;4.336;2023-02-28T14:53:29;7.30;72.80
23520;DHT22;11936;50.820;4.336;2023-02-28T14:55:55;7.40;72.60
23520;DHT22;11936;50.820;4.336;2023-02-28T14:58:27;7.40;72.60
23520;DHT22;11936;50.820;4.336;2023-02-28T15:00:58;7.40;73.50
23520;DHT22;11936;50.820;4.336;2023-02-28T15:03:35;7.50;73.40
23520;DHT22;11936;50.820;4.336;2023-02-28T15:06:06;7.40;72.20
23520;DHT22;11936;50.820;4.336;2023-02-28T15:08:37;7.40;72.80
23520;DHT22;11936;50.820;4.336;2023-02-28T15:11:16;7.40;73.40
23520;DHT22;11936;50.820;4.336;2023-02-28T15:13:47;7.50;72.10
23520;DHT22;11936;50.820;4.336;2023-02-28T15:21:29;7.60;71.90
23520;DHT22;11936;50.820;4.336;2023-02-28T15:24:02;7.50;73.20
23520;DHT22;11936;50.820;4.336;2023-02-28T15:27:13;7.50;73.30
23520;DHT22;11936;50.820;4.336;2023-02-28T15:29:22;7.50;72.80
23520;DHT22;11936;50.820;4.336;2023-02-28T15:32:03;7.40;72.80
23520;DHT22;11936;50.820;4.336;2023-02-28T15:34:38;7.40;73.90
23520;DHT22;11936;50.820;4.336;2023-02-28T15:39:53;7.50;73.40
23520;DHT22;11936;50.820;4.336;2023-02-28T15:42:22;7.50;73.30
23520;DHT22;11936;50.820;4.336;2023-02-28T15:44:48;7.50;73.10
23520;DHT22;11936;50.820;4.336;2023-02-28T15:47:22;7.60;74.00
23520;DHT22;11936;50.820;4.336;2023-02-28T15:52:45;7.40;74.50
23520;DHT22;11936;50.820;4.336;2023-02-28T15:55:19;7.50;74.20
23520;DHT22;11936;50.820;4.336;2023-02-28T15:57:47;7.40;74.20
23520;DHT22;11936;50.820;4.336;2023-02-28T16:00:16;7.20;74.20
23520;DHT22;11936;50.820;4.336;2023-02-28T16:02:44;7.40;74.70
23520;DHT22;11936;50.820;4.336;2023-02-28T16:07:43;7.40;73.70
23520;DHT22;11936;50.820;4.336;2023-02-28T16:10:11;7.30;74.20
23520;DHT22;11936;50.820;4.336;2023-02-28T16:12:38;7.40;75.50
23520;DHT22;11936;50.820;4.336;2023-02-28T16:15:16;7.40;74.30
23520;DHT22;11936;50.820;4.336;2023-02-28T16:17:42;7.40;73.80
23520;DHT22;11936;50.820;4.336;2023-02-28T16:20:20;7.40;73.90
23520;DHT22;11936;50.820;4.336;2023-02-28T16:22:46;7.40;73.90
23520;DHT22;11936;50.820;4.336;2023-02-28T16:25:16;7.30;74.70
23520;DHT22;11936;50.820;4.336;2023-02-28T16:27:43;7.30;74.10
23520;DHT22;11936;50.820;4.336;2023-02-28T16:30:23;7.30;74.60
23520;DHT22;11936;50.820;4.336;2023-02-28T16:32:50;7.30;74.80
23520;DHT22;11936;50.820;4.336;2023-02-28T16:35:15;7.30;75.40
23520;DHT22;11936;50.820;4.336;2023-02-28T16:37:41;7.30;75.60
23520;DHT22;11936;50.820;4.336;2023-02-28T16:40:33;7.20;75.30
23520;DHT22;11936;50.820;4.336;2023-02-28T16:42:58;7.30;75.60
23520;DHT22;11936;50.820;4.336;2023-02-28T16:45:27;7.30;75.60
23520;DHT22;11936;50.820;4.336;2023-02-28T16:47:53;7.40;76.50
23520;DHT22;11936;50.820;4.336;2023-02-28T16:50:22;7.30;76.10
23520;DHT22;11936;50.820;4.336;2023-02-28T16:52:48;7.30;76.00
23520;DHT22;11936;50.820;4.336;2023-02-28T16:55:15;7.30;75.00
23520;DHT22;11936;50.820;4.336;2023-02-28T16:57:41;7.20;75.10
23520;DHT22;11936;50.820;4.336;2023-02-28T17:00:10;7.10;75.40
23520;DHT22;11936;50.820;4.336;2023-02-28T17:02:36;7.10;76.00
23520;DHT22;11936;50.820;4.336;2023-02-28T17:05:02;7.10;75.90
23520;DHT22;11936;50.820;4.336;2023-02-28T17:07:28;7.00;76.30
23520;DHT22;11936;50.820;4.336;2023-02-28T17:09:53;6.90;76.80
23520;DHT22;11936;50.820;4.336;2023-02-28T17:12:19;7.00;76.90
23520;DHT22;11936;50.820;4.336;2023-02-28T17:14:44;7.00;76.40
23520;DHT22;11936;50.820;4.336;2023-02-28T17:17:17;6.90;77.30
23520;DHT22;11936;50.820;4.336;2023-02-28T17:19:43;6.80;78.40
23520;DHT22;11936;50.820;4.336;2023-02-28T17:22:09;6.80;78.00
23520;DHT22;11936;50.820;4.336;2023-02-28T17:24:35;6.80;77.40
23520;DHT22;11936;50.820;4.336;2023-02-28T17:27:01;6.80;77.50
23520;DHT22;11936;50.820;4.336;2023-02-28T17:29:27;6.70;77.80
23520;DHT22;11936;50.820;4.336;2023-02-28T17:31:53;6.80;77.70
23520;DHT22;11936;50.820;4.336;2023-02-28T17:34:18;6.80;81.70
23520;DHT22;11936;50.820;4.336;2023-02-28T17:36:50;6.90;78.20
23520;DHT22;11936;50.820;4.336;2023-02-28T17:39:18;6.80;78.40
23520;DHT22;11936;50.820;4.336;2023-02-28T17:41:50;6.80;78.80
23520;DHT22;11936;50.820;4.336;2023-02-28T17:44:15;6.80;78.40
23520;DHT22;11936;50.820;4.336;2023-02-28T17:46:42;6.70;79.10
23520;DHT22;11936;50.820;4.336;2023-02-28T17:49:08;6.80;78.20
23520;DHT22;11936;50.820;4.336;2023-02-28T17:51:34;6.80;78.30
23520;DHT22;11936;50.820;4.336;2023-02-28T17:53:59;6.70;78.10
23520;DHT22;11936;50.820;4.336;2023-02-28T17:56:26;6.60;78.60
23520;DHT22;11936;50.820;4.336;2023-02-28T17:58:53;6.50;78.40
23520;DHT22;11936;50.820;4.336;2023-02-28T18:01:19;6.60;78.90
23520;DHT22;11936;50.820;4.336;2023-02-28T18:03:48;6.60;78.80
23520;DHT22;11936;50.820;4.336;2023-02-28T18:06:18;6.50;79.20
23520;DHT22;11936;50.820;4.336;2023-02-28T18:08:44;6.50;79.20
23520;DHT22;11936;50.820;4.336;2023-02-28T18:11:10;6.50;79.50
23520;DHT22;11936;50.820;4.336;2023-02-28T18:13:43;6.50;79.70
23520;DHT22;11936;50.820;4.336;2023-02-28T18:16:09;6.40;79.40
23520;DHT22;11936;50.820;4.336;2023-02-28T18:18:35;6.50;79.20
23520;DHT22;11936;50.820;4.336;2023-02-28T18:21:04;6.50;80.50
23520;DHT22;11936;50.820;4.336;2023-02-28T18:23:31;6.50;79.50
23520;DHT22;11936;50.820;4.336;2023-02-28T18:25:57;6.50;80.10
23520;DHT22;11936;50.820;4.336;2023-02-28T18:28:23;6.50;79.80
23520;DHT22;11936;50.820;4.336;2023-02-28T18:30:49;6.50;80.30
23520;DHT22;11936;50.820;4.336;2023-02-28T18:33:15;6.50;80.30
23520;DHT22;11936;50.820;4.336;2023-02-28T18:35:41;6.30;80.50
23520;DHT22;11936;50.820;4.336;2023-02-28T18:38:15;6.30;80.40
23520;DHT22;11936;50.820;4.336;2023-02-28T18:40:41;6.20;80.50
23520;DHT22;11936;50.820;4.336;2023-02-28T18:43:08;6.30;80.90